Terminal Aerodrome Forecast
Issued by NWS

Home | Current Version | Previous Version | Text Only | Print | Product List | Glossary On
Versions: 1 2 3 4 5 6 7 8 9 10 11 12 13 14 15 16 17 18 19 20 21
000
FTAK31 PAJN 231512 AAA
TAFAKT
TAF AMD
PAKT 231512Z 2315/2412 13008KT 4SM -SHRA BR SCT003 OVC010
      TEMPO 2315/2318 2SM SHRA BR BKN003
     FM231800 VRB05KT 4SM SHRA BR SCT008 OVC015
     FM232100 32008KT 6SM -SHRA SCT008 OVC025
     FM240300 34012G20KT P6SM VCSH SCT020 BKN035=

USA.gov is the U.S. government's official web portal to all federal, state and local government web resources and services.